Aeroporto :
LOGIN :

Iscrizione | Disclaimer

   EN    FR    IT 

 










Sommario :    VFR   VFR Marginale   IFR   IFR Intensivo   IFR Molto Intensivo
Visibilità : 
Base nubi : 
>= 8 km
>= 3000ft
5 / 8 km
1000 / 3000 ft
1500m / 5 km
500 / 1000 ft
800 / 1500m
200 / 500 ft
< 800m
< 200 ft
Simboli :   Temporali  Nebbia  Neve Forte  Precipitazioni Forti  Vento > 20 kt
SIGMETs :   Varie  Temporali  Ghiacco  Turbolenza  Onda orograficha  Ceneri Vulcaniche






- Altitudine del aeroporto : 1363 ft


ETIC - Grafenwohr Army Air Field

ULTIMO METAR :
  • 290756Z AUTO 01004KT 9999 BKN040 BKN048 15/05 A3031 RMK AO2 SLP267 T01520054 $

METARs OBSOLETI :
  • 290656Z AUTO 07004KT 9999 FEW034 14/06 A3032 RMK AO2 SLP268 T01410064 $
  • 290556Z AUTO 00000KT 9999 CLR 10/07 A3032 RMK AO2 SLP272 T00960070 10096 20036 50001 $

TAF TAF ETIC
Valido dal 29 a 02 ore il 30 a 08 ore UTC


290200Z 2902/3008 VRB06KT 9999 FEW020 BKN050 QNH3030INS
TEMPO 2903/2905 6000 BR FEW015
BECMG 2905/2906 05009KT 9999 SCT030 BKN060 QNH3027INS
BECMG 2919/2920 VRB06KT 9999 FEW030 SCT050 QNH3024INS
TEMPO 3003/3005 6000 BR TX19/2914Z TN06/2904Z



MetMap, La meteo Aeronautica in un colpo d'occhio ! - Copyright ORBIFLY Dicembre 2007 - Disclaimer

ORBIFLY MET'MAP TEAM :

Programmazione e sviluppo : Alexandra Zaïnal
Concezione : Baudouin d'Aumeries
Aiuto per la programmazione : Marc-Olivier Méhu
Supporto tecnico e logistico : Manuel Goepfert
Aiuto per la traduzione : Arnaldo La Scala

Contatto : metmap@orbifly.com




FONTI E CREDITI :

   NOAA